sensor_id;sensor_type;location;lat;lon;timestamp;P1;durP1;ratioP1;P2;durP2;ratioP2
75400;SDS011;63974;47.538;18.972;2023-03-09T00:00:17;5.60;;;2.50;;
75400;SDS011;63974;47.538;18.972;2023-03-09T00:03:24;4.93;;;2.15;;
75400;SDS011;63974;47.538;18.972;2023-03-09T00:06:27;6.50;;;2.75;;
75400;SDS011;63974;47.538;18.972;2023-03-09T00:09:30;5.45;;;2.22;;
75400;SDS011;63974;47.538;18.972;2023-03-09T00:12:33;5.80;;;2.50;;
75400;SDS011;63974;47.538;18.972;2023-03-09T00:15:36;4.38;;;2.28;;
75400;SDS011;63974;47.538;18.972;2023-03-09T00:18:39;4.50;;;2.30;;
75400;SDS011;63974;47.538;18.972;2023-03-09T00:21:42;7.88;;;2.17;;
75400;SDS011;63974;47.538;18.972;2023-03-09T00:24:50;4.50;;;2.22;;
75400;SDS011;63974;47.538;18.972;2023-03-09T00:27:58;5.53;;;2.10;;
75400;SDS011;63974;47.538;18.972;2023-03-09T00:31:01;4.80;;;2.58;;
75400;SDS011;63974;47.538;18.972;2023-03-09T00:34:10;3.47;;;2.22;;
75400;SDS011;63974;47.538;18.972;2023-03-09T00:37:15;7.45;;;2.58;;
75400;SDS011;63974;47.538;18.972;2023-03-09T00:40:18;6.20;;;2.92;;
75400;SDS011;63974;47.538;18.972;2023-03-09T00:43:21;6.30;;;2.50;;
75400;SDS011;63974;47.538;18.972;2023-03-09T00:46:24;5.35;;;2.53;;
75400;SDS011;63974;47.538;18.972;2023-03-09T00:49:28;6.32;;;2.75;;
75400;SDS011;63974;47.538;18.972;2023-03-09T00:52:30;6.82;;;2.90;;
75400;SDS011;63974;47.538;18.972;2023-03-09T00:55:33;5.22;;;2.65;;
75400;SDS011;63974;47.538;18.972;2023-03-09T00:58:37;5.23;;;2.47;;
75400;SDS011;63974;47.538;18.972;2023-03-09T01:01:40;5.00;;;3.13;;
75400;SDS011;63974;47.538;18.972;2023-03-09T01:04:43;5.18;;;2.97;;
75400;SDS011;63974;47.538;18.972;2023-03-09T01:07:49;4.32;;;2.70;;
75400;SDS011;63974;47.538;18.972;2023-03-09T01:10:52;4.55;;;2.42;;
75400;SDS011;63974;47.538;18.972;2023-03-09T01:13:55;6.17;;;3.07;;
75400;SDS011;63974;47.538;18.972;2023-03-09T01:16:58;4.03;;;2.17;;
75400;SDS011;63974;47.538;18.972;2023-03-09T01:20:01;5.47;;;2.63;;
75400;SDS011;63974;47.538;18.972;2023-03-09T01:23:04;6.32;;;3.00;;
75400;SDS011;63974;47.538;18.972;2023-03-09T01:26:08;6.32;;;4.22;;
75400;SDS011;63974;47.538;18.972;2023-03-09T01:29:12;5.53;;;2.93;;
75400;SDS011;63974;47.538;18.972;2023-03-09T01:32:14;9.68;;;2.92;;
75400;SDS011;63974;47.538;18.972;2023-03-09T01:35:18;5.30;;;2.65;;
75400;SDS011;63974;47.538;18.972;2023-03-09T01:38:20;7.55;;;2.78;;
75400;SDS011;63974;47.538;18.972;2023-03-09T01:41:23;5.25;;;2.90;;
75400;SDS011;63974;47.538;18.972;2023-03-09T01:44:26;6.27;;;2.73;;
75400;SDS011;63974;47.538;18.972;2023-03-09T01:47:29;8.55;;;3.05;;
75400;SDS011;63974;47.538;18.972;2023-03-09T01:50:32;6.30;;;3.08;;
75400;SDS011;63974;47.538;18.972;2023-03-09T01:53:39;6.90;;;3.90;;
75400;SDS011;63974;47.538;18.972;2023-03-09T01:56:42;7.03;;;3.05;;
75400;SDS011;63974;47.538;18.972;2023-03-09T01:59:48;4.63;;;2.70;;
75400;SDS011;63974;47.538;18.972;2023-03-09T02:03:00;6.80;;;2.80;;
75400;SDS011;63974;47.538;18.972;2023-03-09T02:06:10;5.88;;;3.05;;
75400;SDS011;63974;47.538;18.972;2023-03-09T02:09:21;8.80;;;2.72;;
75400;SDS011;63974;47.538;18.972;2023-03-09T02:12:35;6.07;;;2.80;;
75400;SDS011;63974;47.538;18.972;2023-03-09T02:15:41;8.30;;;2.87;;
75400;SDS011;63974;47.538;18.972;2023-03-09T02:18:44;6.00;;;2.63;;
75400;SDS011;63974;47.538;18.972;2023-03-09T02:21:48;5.80;;;3.15;;
75400;SDS011;63974;47.538;18.972;2023-03-09T02:24:55;4.65;;;2.65;;
75400;SDS011;63974;47.538;18.972;2023-03-09T02:28:09;7.40;;;2.90;;
75400;SDS011;63974;47.538;18.972;2023-03-09T02:31:12;6.47;;;2.50;;
75400;SDS011;63974;47.538;18.972;2023-03-09T02:34:18;2.80;;;2.00;;
75400;SDS011;63974;47.538;18.972;2023-03-09T02:37:25;4.25;;;1.90;;
75400;SDS011;63974;47.538;18.972;2023-03-09T02:40:43;4.05;;;2.15;;
75400;SDS011;63974;47.538;18.972;2023-03-09T02:43:52;4.53;;;2.20;;
75400;SDS011;63974;47.538;18.972;2023-03-09T02:47:06;5.83;;;2.03;;
75400;SDS011;63974;47.538;18.972;2023-03-09T02:50:12;5.82;;;1.98;;
75400;SDS011;63974;47.538;18.972;2023-03-09T02:53:16;6.43;;;1.63;;
75400;SDS011;63974;47.538;18.972;2023-03-09T02:56:19;7.28;;;2.45;;
75400;SDS011;63974;47.538;18.972;2023-03-09T02:59:22;3.75;;;1.77;;
75400;SDS011;63974;47.538;18.972;2023-03-09T03:02:25;4.50;;;1.80;;
75400;SDS011;63974;47.538;18.972;2023-03-09T03:05:28;3.97;;;2.25;;
75400;SDS011;63974;47.538;18.972;2023-03-09T03:08:31;5.05;;;2.22;;
75400;SDS011;63974;47.538;18.972;2023-03-09T03:11:41;4.32;;;2.08;;
75400;SDS011;63974;47.538;18.972;2023-03-09T03:14:44;4.07;;;1.92;;
75400;SDS011;63974;47.538;18.972;2023-03-09T03:17:50;3.10;;;2.07;;
75400;SDS011;63974;47.538;18.972;2023-03-09T03:20:53;3.92;;;1.75;;
75400;SDS011;63974;47.538;18.972;2023-03-09T03:23:56;4.63;;;1.98;;
75400;SDS011;63974;47.538;18.972;2023-03-09T03:27:02;4.72;;;1.90;;
75400;SDS011;63974;47.538;18.972;2023-03-09T03:30:05;5.55;;;2.60;;
75400;SDS011;63974;47.538;18.972;2023-03-09T03:33:11;3.93;;;1.47;;
75400;SDS011;63974;47.538;18.972;2023-03-09T03:36:14;4.18;;;1.70;;
75400;SDS011;63974;47.538;18.972;2023-03-09T03:39:19;3.92;;;1.33;;
75400;SDS011;63974;47.538;18.972;2023-03-09T03:42:26;3.35;;;1.42;;
75400;SDS011;63974;47.538;18.972;2023-03-09T03:45:29;2.97;;;1.33;;
75400;SDS011;63974;47.538;18.972;2023-03-09T03:48:32;4.17;;;1.40;;
75400;SDS011;63974;47.538;18.972;2023-03-09T03:51:35;4.40;;;1.35;;
75400;SDS011;63974;47.538;18.972;2023-03-09T03:54:39;3.47;;;1.40;;
75400;SDS011;63974;47.538;18.972;2023-03-09T03:57:42;3.42;;;1.92;;
75400;SDS011;63974;47.538;18.972;2023-03-09T04:00:46;3.00;;;1.40;;
75400;SDS011;63974;47.538;18.972;2023-03-09T04:03:52;4.33;;;1.83;;
75400;SDS011;63974;47.538;18.972;2023-03-09T04:06:56;3.05;;;1.38;;
75400;SDS011;63974;47.538;18.972;2023-03-09T04:10:01;3.88;;;1.45;;
75400;SDS011;63974;47.538;18.972;2023-03-09T04:13:07;2.17;;;1.15;;
75400;SDS011;63974;47.538;18.972;2023-03-09T04:16:10;2.85;;;1.40;;
75400;SDS011;63974;47.538;18.972;2023-03-09T04:19:13;2.20;;;1.20;;
75400;SDS011;63974;47.538;18.972;2023-03-09T04:22:17;6.15;;;1.20;;
75400;SDS011;63974;47.538;18.972;2023-03-09T04:25:21;2.05;;;1.17;;
75400;SDS011;63974;47.538;18.972;2023-03-09T04:28:24;2.40;;;0.93;;
75400;SDS011;63974;47.538;18.972;2023-03-09T04:31:28;6.22;;;1.00;;
75400;SDS011;63974;47.538;18.972;2023-03-09T04:34:33;2.60;;;0.87;;
75400;SDS011;63974;47.538;18.972;2023-03-09T04:37:36;2.72;;;1.10;;
75400;SDS011;63974;47.538;18.972;2023-03-09T04:40:39;4.20;;;1.23;;
75400;SDS011;63974;47.538;18.972;2023-03-09T04:43:42;3.47;;;1.02;;
75400;SDS011;63974;47.538;18.972;2023-03-09T04:46:46;3.15;;;1.00;;
75400;SDS011;63974;47.538;18.972;2023-03-09T04:49:49;2.10;;;0.80;;
75400;SDS011;63974;47.538;18.972;2023-03-09T04:52:52;2.38;;;1.17;;
75400;SDS011;63974;47.538;18.972;2023-03-09T04:55:58;3.83;;;0.82;;
75400;SDS011;63974;47.538;18.972;2023-03-09T04:59:02;2.72;;;1.08;;
75400;SDS011;63974;47.538;18.972;2023-03-09T05:02:05;2.53;;;1.15;;
75400;SDS011;63974;47.538;18.972;2023-03-09T05:05:18;5.20;;;0.93;;
75400;SDS011;63974;47.538;18.972;2023-03-09T05:08:26;3.42;;;0.75;;
75400;SDS011;63974;47.538;18.972;2023-03-09T05:11:29;3.63;;;1.08;;
75400;SDS011;63974;47.538;18.972;2023-03-09T05:14:32;2.08;;;0.63;;
75400;SDS011;63974;47.538;18.972;2023-03-09T05:17:36;3.00;;;1.08;;
75400;SDS011;63974;47.538;18.972;2023-03-09T05:20:40;1.90;;;0.87;;
75400;SDS011;63974;47.538;18.972;2023-03-09T05:23:44;4.55;;;0.90;;
75400;SDS011;63974;47.538;18.972;2023-03-09T05:26:48;3.63;;;1.10;;
75400;SDS011;63974;47.538;18.972;2023-03-09T05:29:52;1.48;;;1.00;;
75400;SDS011;63974;47.538;18.972;2023-03-09T05:32:56;6.43;;;0.80;;
75400;SDS011;63974;47.538;18.972;2023-03-09T05:36:01;3.60;;;1.30;;
75400;SDS011;63974;47.538;18.972;2023-03-09T05:39:04;1.75;;;0.70;;
75400;SDS011;63974;47.538;18.972;2023-03-09T05:42:08;2.17;;;1.70;;
75400;SDS011;63974;47.538;18.972;2023-03-09T05:45:12;3.58;;;1.42;;
75400;SDS011;63974;47.538;18.972;2023-03-09T05:48:15;3.50;;;1.30;;
75400;SDS011;63974;47.538;18.972;2023-03-09T05:51:18;2.40;;;1.40;;
75400;SDS011;63974;47.538;18.972;2023-03-09T05:54:22;2.03;;;1.00;;
75400;SDS011;63974;47.538;18.972;2023-03-09T05:57:27;2.83;;;0.90;;
75400;SDS011;63974;47.538;18.972;2023-03-09T06:00:30;4.10;;;1.20;;
75400;SDS011;63974;47.538;18.972;2023-03-09T06:03:37;3.65;;;1.23;;
75400;SDS011;63974;47.538;18.972;2023-03-09T06:06:40;2.33;;;1.00;;
75400;SDS011;63974;47.538;18.972;2023-03-09T06:09:43;2.08;;;1.25;;
75400;SDS011;63974;47.538;18.972;2023-03-09T06:12:52;2.78;;;1.20;;
75400;SDS011;63974;47.538;18.972;2023-03-09T06:15:58;9.43;;;1.35;;
75400;SDS011;63974;47.538;18.972;2023-03-09T06:19:04;1.67;;;1.40;;
75400;SDS011;63974;47.538;18.972;2023-03-09T06:22:07;2.93;;;1.40;;
75400;SDS011;63974;47.538;18.972;2023-03-09T06:25:11;3.50;;;1.90;;
75400;SDS011;63974;47.538;18.972;2023-03-09T06:28:18;2.75;;;1.48;;
75400;SDS011;63974;47.538;18.972;2023-03-09T06:31:24;3.17;;;1.60;;
75400;SDS011;63974;47.538;18.972;2023-03-09T06:34:32;3.33;;;1.80;;
75400;SDS011;63974;47.538;18.972;2023-03-09T06:37:39;3.30;;;1.53;;
75400;SDS011;63974;47.538;18.972;2023-03-09T06:40:42;4.22;;;1.60;;
75400;SDS011;63974;47.538;18.972;2023-03-09T06:43:48;4.13;;;1.50;;
75400;SDS011;63974;47.538;18.972;2023-03-09T06:46:53;4.07;;;1.63;;
75400;SDS011;63974;47.538;18.972;2023-03-09T06:49:59;4.22;;;1.85;;
75400;SDS011;63974;47.538;18.972;2023-03-09T06:53:03;2.90;;;2.20;;
75400;SDS011;63974;47.538;18.972;2023-03-09T06:56:06;3.67;;;2.30;;
75400;SDS011;63974;47.538;18.972;2023-03-09T06:59:10;3.42;;;1.92;;
75400;SDS011;63974;47.538;18.972;2023-03-09T07:02:13;3.28;;;1.65;;
75400;SDS011;63974;47.538;18.972;2023-03-09T07:05:17;3.25;;;1.65;;
75400;SDS011;63974;47.538;18.972;2023-03-09T07:08:20;4.20;;;2.23;;
75400;SDS011;63974;47.538;18.972;2023-03-09T07:11:23;5.45;;;2.00;;
75400;SDS011;63974;47.538;18.972;2023-03-09T07:14:26;6.43;;;2.65;;
75400;SDS011;63974;47.538;18.972;2023-03-09T07:17:29;12.02;;;4.63;;
75400;SDS011;63974;47.538;18.972;2023-03-09T07:20:32;15.52;;;5.55;;
75400;SDS011;63974;47.538;18.972;2023-03-09T07:23:35;18.17;;;5.07;;
75400;SDS011;63974;47.538;18.972;2023-03-09T07:26:38;6.10;;;3.38;;
75400;SDS011;63974;47.538;18.972;2023-03-09T07:29:41;4.68;;;2.90;;
75400;SDS011;63974;47.538;18.972;2023-03-09T07:32:44;3.78;;;1.92;;
75400;SDS011;63974;47.538;18.972;2023-03-09T07:35:47;5.72;;;2.75;;
75400;SDS011;63974;47.538;18.972;2023-03-09T07:38:50;8.17;;;2.40;;
75400;SDS011;63974;47.538;18.972;2023-03-09T07:41:53;4.47;;;2.40;;
75400;SDS011;63974;47.538;18.972;2023-03-09T07:44:56;4.32;;;2.15;;
75400;SDS011;63974;47.538;18.972;2023-03-09T07:47:59;5.50;;;2.40;;
75400;SDS011;63974;47.538;18.972;2023-03-09T07:51:02;7.80;;;2.75;;
75400;SDS011;63974;47.538;18.972;2023-03-09T07:54:06;8.47;;;3.33;;
75400;SDS011;63974;47.538;18.972;2023-03-09T07:57:09;7.22;;;3.30;;
75400;SDS011;63974;47.538;18.972;2023-03-09T08:00:12;5.22;;;2.00;;
75400;SDS011;63974;47.538;18.972;2023-03-09T08:03:16;6.30;;;2.50;;
75400;SDS011;63974;47.538;18.972;2023-03-09T08:06:18;3.95;;;2.03;;
75400;SDS011;63974;47.538;18.972;2023-03-09T08:09:22;4.07;;;2.20;;
75400;SDS011;63974;47.538;18.972;2023-03-09T08:12:24;5.47;;;2.35;;
75400;SDS011;63974;47.538;18.972;2023-03-09T08:15:27;7.38;;;2.72;;
75400;SDS011;63974;47.538;18.972;2023-03-09T08:18:30;7.55;;;3.10;;
75400;SDS011;63974;47.538;18.972;2023-03-09T08:21:33;3.65;;;2.10;;
75400;SDS011;63974;47.538;18.972;2023-03-09T08:24:36;5.80;;;2.77;;
75400;SDS011;63974;47.538;18.972;2023-03-09T08:27:40;4.65;;;2.00;;
75400;SDS011;63974;47.538;18.972;2023-03-09T08:30:44;8.10;;;2.42;;
75400;SDS011;63974;47.538;18.972;2023-03-09T08:33:47;5.70;;;1.75;;
75400;SDS011;63974;47.538;18.972;2023-03-09T08:36:55;6.43;;;2.00;;
75400;SDS011;63974;47.538;18.972;2023-03-09T08:39:59;2.43;;;1.73;;
75400;SDS011;63974;47.538;18.972;2023-03-09T08:43:02;6.43;;;2.20;;
75400;SDS011;63974;47.538;18.972;2023-03-09T08:46:05;5.53;;;2.30;;
75400;SDS011;63974;47.538;18.972;2023-03-09T08:49:08;10.20;;;3.47;;
75400;SDS011;63974;47.538;18.972;2023-03-09T08:52:10;5.57;;;1.90;;
75400;SDS011;63974;47.538;18.972;2023-03-09T08:55:13;2.53;;;1.30;;
75400;SDS011;63974;47.538;18.972;2023-03-09T08:58:16;4.10;;;1.10;;
75400;SDS011;63974;47.538;18.972;2023-03-09T09:01:20;4.07;;;0.90;;
75400;SDS011;63974;47.538;18.972;2023-03-09T09:04:23;2.97;;;0.90;;
75400;SDS011;63974;47.538;18.972;2023-03-09T09:07:28;3.67;;;1.30;;
75400;SDS011;63974;47.538;18.972;2023-03-09T09:10:33;2.93;;;0.73;;
75400;SDS011;63974;47.538;18.972;2023-03-09T09:13:37;2.05;;;0.95;;
75400;SDS011;63974;47.538;18.972;2023-03-09T09:16:40;2.97;;;0.95;;
75400;SDS011;63974;47.538;18.972;2023-03-09T09:19:43;3.05;;;0.90;;
75400;SDS011;63974;47.538;18.972;2023-03-09T09:22:47;1.10;;;0.35;;
75400;SDS011;63974;47.538;18.972;2023-03-09T09:25:53;4.57;;;0.73;;
75400;SDS011;63974;47.538;18.972;2023-03-09T09:28:59;2.53;;;1.05;;
75400;SDS011;63974;47.538;18.972;2023-03-09T09:32:04;2.88;;;0.60;;
75400;SDS011;63974;47.538;18.972;2023-03-09T09:35:07;2.58;;;1.00;;
75400;SDS011;63974;47.538;18.972;2023-03-09T09:38:11;4.63;;;1.20;;
75400;SDS011;63974;47.538;18.972;2023-03-09T09:44:42;2.92;;;1.10;;
75400;SDS011;63974;47.538;18.972;2023-03-09T09:47:48;4.55;;;1.45;;
75400;SDS011;63974;47.538;18.972;2023-03-09T09:57:23;4.13;;;1.17;;
75400;SDS011;63974;47.538;18.972;2023-03-09T10:00:56;3.20;;;1.13;;
75400;SDS011;63974;47.538;18.972;2023-03-09T10:04:05;2.30;;;1.27;;
75400;SDS011;63974;47.538;18.972;2023-03-09T10:07:20;1.88;;;1.00;;
75400;SDS011;63974;47.538;18.972;2023-03-09T10:10:26;2.67;;;1.00;;
75400;SDS011;63974;47.538;18.972;2023-03-09T10:13:33;1.80;;;0.87;;
75400;SDS011;63974;47.538;18.972;2023-03-09T10:16:43;3.85;;;1.48;;
75400;SDS011;63974;47.538;18.972;2023-03-09T10:19:52;3.10;;;1.60;;
75400;SDS011;63974;47.538;18.972;2023-03-09T10:22:57;3.88;;;1.33;;
75400;SDS011;63974;47.538;18.972;2023-03-09T10:29:23;2.53;;;1.20;;
75400;SDS011;63974;47.538;18.972;2023-03-09T10:32:37;3.03;;;0.88;;
75400;SDS011;63974;47.538;18.972;2023-03-09T10:35:44;1.55;;;1.25;;
75400;SDS011;63974;47.538;18.972;2023-03-09T10:38:56;2.45;;;1.30;;
75400;SDS011;63974;47.538;18.972;2023-03-09T10:42:14;1.63;;;0.95;;
75400;SDS011;63974;47.538;18.972;2023-03-09T10:45:22;5.83;;;0.93;;
75400;SDS011;63974;47.538;18.972;2023-03-09T10:48:26;1.63;;;0.60;;
75400;SDS011;63974;47.538;18.972;2023-03-09T10:51:35;2.85;;;0.90;;
75400;SDS011;63974;47.538;18.972;2023-03-09T10:54:41;2.92;;;0.80;;
75400;SDS011;63974;47.538;18.972;2023-03-09T10:57:50;1.08;;;0.63;;
75400;SDS011;63974;47.538;18.972;2023-03-09T11:01:04;0.83;;;0.80;;
75400;SDS011;63974;47.538;18.972;2023-03-09T11:04:28;3.88;;;1.17;;
75400;SDS011;63974;47.538;18.972;2023-03-09T11:07:35;3.10;;;1.35;;
75400;SDS011;63974;47.538;18.972;2023-03-09T11:10:38;1.70;;;1.20;;
75400;SDS011;63974;47.538;18.972;2023-03-09T11:13:44;2.30;;;1.00;;
75400;SDS011;63974;47.538;18.972;2023-03-09T11:16:49;3.40;;;0.77;;
75400;SDS011;63974;47.538;18.972;2023-03-09T11:23:22;2.80;;;0.85;;
75400;SDS011;63974;47.538;18.972;2023-03-09T11:26:38;2.80;;;0.77;;
75400;SDS011;63974;47.538;18.972;2023-03-09T11:29:56;2.03;;;0.70;;
75400;SDS011;63974;47.538;18.972;2023-03-09T11:33:01;4.00;;;1.10;;
75400;SDS011;63974;47.538;18.972;2023-03-09T11:36:05;2.28;;;1.17;;
75400;SDS011;63974;47.538;18.972;2023-03-09T11:39:21;3.03;;;1.10;;
75400;SDS011;63974;47.538;18.972;2023-03-09T11:46:01;3.50;;;0.80;;
75400;SDS011;63974;47.538;18.972;2023-03-09T11:49:11;1.97;;;0.83;;
75400;SDS011;63974;47.538;18.972;2023-03-09T11:52:31;2.95;;;0.90;;
75400;SDS011;63974;47.538;18.972;2023-03-09T11:55:41;2.85;;;1.20;;
75400;SDS011;63974;47.538;18.972;2023-03-09T11:58:51;3.70;;;1.00;;
75400;SDS011;63974;47.538;18.972;2023-03-09T12:01:58;3.53;;;1.45;;
75400;SDS011;63974;47.538;18.972;2023-03-09T12:05:25;1.47;;;1.00;;
75400;SDS011;63974;47.538;18.972;2023-03-09T12:11:47;2.00;;;0.98;;
75400;SDS011;63974;47.538;18.972;2023-03-09T12:14:56;2.75;;;1.08;;
75400;SDS011;63974;47.538;18.972;2023-03-09T12:18:07;1.48;;;0.95;;
75400;SDS011;63974;47.538;18.972;2023-03-09T12:21:26;4.10;;;0.83;;
75400;SDS011;63974;47.538;18.972;2023-03-09T12:24:42;2.20;;;0.85;;
75400;SDS011;63974;47.538;18.972;2023-03-09T12:27:48;4.32;;;1.00;;
75400;SDS011;63974;47.538;18.972;2023-03-09T12:30:55;1.35;;;0.60;;
75400;SDS011;63974;47.538;18.972;2023-03-09T12:40:36;1.35;;;0.80;;
75400;SDS011;63974;47.538;18.972;2023-03-09T12:43:44;1.17;;;0.60;;
75400;SDS011;63974;47.538;18.972;2023-03-09T12:46:58;2.10;;;0.52;;
75400;SDS011;63974;47.538;18.972;2023-03-09T12:50:26;1.30;;;0.75;;
75400;SDS011;63974;47.538;18.972;2023-03-09T12:53:33;3.07;;;0.70;;
75400;SDS011;63974;47.538;18.972;2023-03-09T12:57:21;1.23;;;0.47;;
75400;SDS011;63974;47.538;18.972;2023-03-09T13:00:26;2.10;;;0.80;;
75400;SDS011;63974;47.538;18.972;2023-03-09T13:03:34;1.75;;;0.95;;
75400;SDS011;63974;47.538;18.972;2023-03-09T13:06:55;2.38;;;0.75;;
75400;SDS011;63974;47.538;18.972;2023-03-09T13:10:00;1.10;;;0.50;;
75400;SDS011;63974;47.538;18.972;2023-03-09T13:16:38;2.22;;;0.60;;
75400;SDS011;63974;47.538;18.972;2023-03-09T13:19:51;1.48;;;0.40;;
75400;SDS011;63974;47.538;18.972;2023-03-09T13:22:56;0.70;;;0.20;;
75400;SDS011;63974;47.538;18.972;2023-03-09T13:26:11;0.67;;;0.50;;
75400;SDS011;63974;47.538;18.972;2023-03-09T13:29:18;1.55;;;0.60;;
75400;SDS011;63974;47.538;18.972;2023-03-09T13:32:27;1.83;;;0.43;;
75400;SDS011;63974;47.538;18.972;2023-03-09T13:35:37;1.00;;;0.32;;
75400;SDS011;63974;47.538;18.972;2023-03-09T13:38:45;1.83;;;0.40;;
75400;SDS011;63974;47.538;18.972;2023-03-09T13:41:51;0.93;;;0.50;;
75400;SDS011;63974;47.538;18.972;2023-03-09T13:44:55;1.30;;;0.63;;
75400;SDS011;63974;47.538;18.972;2023-03-09T13:48:00;1.80;;;0.60;;
75400;SDS011;63974;47.538;18.972;2023-03-09T13:51:22;1.08;;;0.35;;
75400;SDS011;63974;47.538;18.972;2023-03-09T13:54:31;2.13;;;0.65;;
75400;SDS011;63974;47.538;18.972;2023-03-09T13:57:40;1.63;;;0.47;;
75400;SDS011;63974;47.538;18.972;2023-03-09T14:04:02;1.50;;;0.50;;
75400;SDS011;63974;47.538;18.972;2023-03-09T14:07:11;0.63;;;0.32;;
75400;SDS011;63974;47.538;18.972;2023-03-09T14:10:20;1.40;;;0.60;;
75400;SDS011;63974;47.538;18.972;2023-03-09T14:13:25;1.87;;;0.77;;
75400;SDS011;63974;47.538;18.972;2023-03-09T14:16:29;1.48;;;0.70;;
75400;SDS011;63974;47.538;18.972;2023-03-09T14:19:35;0.80;;;0.40;;
75400;SDS011;63974;47.538;18.972;2023-03-09T14:22:38;1.35;;;0.47;;
75400;SDS011;63974;47.538;18.972;2023-03-09T14:25:41;2.47;;;1.23;;
75400;SDS011;63974;47.538;18.972;2023-03-09T14:28:57;2.63;;;0.70;;
75400;SDS011;63974;47.538;18.972;2023-03-09T14:32:22;3.13;;;2.20;;
75400;SDS011;63974;47.538;18.972;2023-03-09T14:35:31;3.42;;;1.25;;
75400;SDS011;63974;47.538;18.972;2023-03-09T14:38:38;2.38;;;0.90;;
75400;SDS011;63974;47.538;18.972;2023-03-09T14:42:05;1.38;;;0.50;;
75400;SDS011;63974;47.538;18.972;2023-03-09T14:48:13;0.82;;;0.60;;
75400;SDS011;63974;47.538;18.972;2023-03-09T14:51:37;1.65;;;0.70;;
75400;SDS011;63974;47.538;18.972;2023-03-09T14:54:40;1.73;;;1.63;;
75400;SDS011;63974;47.538;18.972;2023-03-09T14:57:44;3.30;;;1.80;;
75400;SDS011;63974;47.538;18.972;2023-03-09T15:00:47;9.20;;;5.00;;
75400;SDS011;63974;47.538;18.972;2023-03-09T15:03:50;23.98;;;11.27;;
75400;SDS011;63974;47.538;18.972;2023-03-09T15:06:53;1.08;;;0.75;;
75400;SDS011;63974;47.538;18.972;2023-03-09T15:09:56;1.35;;;0.70;;
75400;SDS011;63974;47.538;18.972;2023-03-09T15:12:59;3.80;;;2.28;;
75400;SDS011;63974;47.538;18.972;2023-03-09T15:16:02;1.13;;;0.60;;
75400;SDS011;63974;47.538;18.972;2023-03-09T15:19:09;1.60;;;0.60;;
75400;SDS011;63974;47.538;18.972;2023-03-09T15:22:18;4.18;;;1.35;;
75400;SDS011;63974;47.538;18.972;2023-03-09T15:25:24;5.20;;;0.80;;
75400;SDS011;63974;47.538;18.972;2023-03-09T15:28:27;0.55;;;0.45;;
75400;SDS011;63974;47.538;18.972;2023-03-09T15:31:30;0.50;;;0.40;;
75400;SDS011;63974;47.538;18.972;2023-03-09T15:34:34;4.45;;;1.30;;
75400;SDS011;63974;47.538;18.972;2023-03-09T15:37:41;5.32;;;1.88;;
75400;SDS011;63974;47.538;18.972;2023-03-09T15:40:45;4.40;;;1.80;;
75400;SDS011;63974;47.538;18.972;2023-03-09T15:43:48;3.20;;;1.42;;
75400;SDS011;63974;47.538;18.972;2023-03-09T15:46:51;4.87;;;1.40;;
75400;SDS011;63974;47.538;18.972;2023-03-09T15:49:54;2.85;;;1.25;;
75400;SDS011;63974;47.538;18.972;2023-03-09T15:52:57;5.40;;;1.90;;
75400;SDS011;63974;47.538;18.972;2023-03-09T15:56:00;6.22;;;2.20;;
75400;SDS011;63974;47.538;18.972;2023-03-09T15:59:05;3.55;;;1.73;;
75400;SDS011;63974;47.538;18.972;2023-03-09T16:02:09;2.97;;;1.20;;
75400;SDS011;63974;47.538;18.972;2023-03-09T16:05:12;4.47;;;1.95;;
75400;SDS011;63974;47.538;18.972;2023-03-09T16:08:15;10.98;;;3.72;;
75400;SDS011;63974;47.538;18.972;2023-03-09T16:11:18;3.63;;;1.70;;
75400;SDS011;63974;47.538;18.972;2023-03-09T16:14:22;10.40;;;4.82;;
75400;SDS011;63974;47.538;18.972;2023-03-09T16:17:25;7.37;;;3.80;;
75400;SDS011;63974;47.538;18.972;2023-03-09T16:20:28;6.18;;;3.42;;
75400;SDS011;63974;47.538;18.972;2023-03-09T16:23:31;2.42;;;1.50;;
75400;SDS011;63974;47.538;18.972;2023-03-09T16:26:34;1.70;;;0.70;;
75400;SDS011;63974;47.538;18.972;2023-03-09T16:29:38;1.48;;;0.45;;
75400;SDS011;63974;47.538;18.972;2023-03-09T16:32:41;2.23;;;0.50;;
75400;SDS011;63974;47.538;18.972;2023-03-09T16:35:44;0.95;;;0.45;;
75400;SDS011;63974;47.538;18.972;2023-03-09T16:38:47;2.25;;;0.40;;
75400;SDS011;63974;47.538;18.972;2023-03-09T16:41:51;2.80;;;0.45;;
75400;SDS011;63974;47.538;18.972;2023-03-09T16:44:56;1.55;;;0.50;;
75400;SDS011;63974;47.538;18.972;2023-03-09T16:47:59;2.43;;;0.50;;
75400;SDS011;63974;47.538;18.972;2023-03-09T16:51:02;0.88;;;0.40;;
75400;SDS011;63974;47.538;18.972;2023-03-09T16:54:05;1.10;;;0.50;;
75400;SDS011;63974;47.538;18.972;2023-03-09T16:57:08;1.05;;;0.40;;
75400;SDS011;63974;47.538;18.972;2023-03-09T17:00:14;1.48;;;0.43;;
75400;SDS011;63974;47.538;18.972;2023-03-09T17:03:18;1.13;;;0.33;;
75400;SDS011;63974;47.538;18.972;2023-03-09T17:06:22;0.90;;;0.80;;
75400;SDS011;63974;47.538;18.972;2023-03-09T17:09:25;2.47;;;0.90;;
75400;SDS011;63974;47.538;18.972;2023-03-09T17:12:29;1.17;;;0.20;;
75400;SDS011;63974;47.538;18.972;2023-03-09T17:15:32;1.55;;;0.52;;
75400;SDS011;63974;47.538;18.972;2023-03-09T17:18:36;2.23;;;0.50;;
75400;SDS011;63974;47.538;18.972;2023-03-09T17:21:39;1.10;;;0.43;;
75400;SDS011;63974;47.538;18.972;2023-03-09T17:24:42;3.33;;;0.55;;
75400;SDS011;63974;47.538;18.972;2023-03-09T17:27:45;0.65;;;0.38;;
75400;SDS011;63974;47.538;18.972;2023-03-09T17:30:49;1.77;;;0.30;;
75400;SDS011;63974;47.538;18.972;2023-03-09T17:33:51;1.40;;;0.30;;
75400;SDS011;63974;47.538;18.972;2023-03-09T17:36:54;1.35;;;0.30;;
75400;SDS011;63974;47.538;18.972;2023-03-09T17:39:57;0.93;;;0.50;;
75400;SDS011;63974;47.538;18.972;2023-03-09T17:43:00;1.50;;;0.50;;
75400;SDS011;63974;47.538;18.972;2023-03-09T17:46:04;1.40;;;0.65;;
75400;SDS011;63974;47.538;18.972;2023-03-09T17:49:11;1.20;;;0.30;;
75400;SDS011;63974;47.538;18.972;2023-03-09T17:52:15;1.15;;;0.45;;
75400;SDS011;63974;47.538;18.972;2023-03-09T17:55:17;1.17;;;0.40;;
75400;SDS011;63974;47.538;18.972;2023-03-09T17:58:20;2.25;;;0.70;;
75400;SDS011;63974;47.538;18.972;2023-03-09T18:01:24;1.90;;;1.00;;
75400;SDS011;63974;47.538;18.972;2023-03-09T18:04:30;2.90;;;1.10;;
75400;SDS011;63974;47.538;18.972;2023-03-09T18:07:32;4.90;;;2.28;;
75400;SDS011;63974;47.538;18.972;2023-03-09T18:10:36;4.32;;;1.75;;
75400;SDS011;63974;47.538;18.972;2023-03-09T18:13:43;3.83;;;1.80;;
75400;SDS011;63974;47.538;18.972;2023-03-09T18:16:46;7.00;;;2.33;;
75400;SDS011;63974;47.538;18.972;2023-03-09T18:19:49;5.60;;;2.53;;
75400;SDS011;63974;47.538;18.972;2023-03-09T18:22:52;6.95;;;3.50;;
75400;SDS011;63974;47.538;18.972;2023-03-09T18:25:55;5.72;;;3.67;;
75400;SDS011;63974;47.538;18.972;2023-03-09T18:28:58;5.30;;;2.55;;
75400;SDS011;63974;47.538;18.972;2023-03-09T18:32:02;5.65;;;2.78;;
75400;SDS011;63974;47.538;18.972;2023-03-09T18:35:07;3.73;;;2.40;;
75400;SDS011;63974;47.538;18.972;2023-03-09T18:38:11;4.03;;;2.20;;
75400;SDS011;63974;47.538;18.972;2023-03-09T18:41:14;7.90;;;3.92;;
75400;SDS011;63974;47.538;18.972;2023-03-09T18:44:18;9.32;;;5.72;;
75400;SDS011;63974;47.538;18.972;2023-03-09T18:47:21;15.38;;;7.15;;
75400;SDS011;63974;47.538;18.972;2023-03-09T18:50:28;18.00;;;10.13;;
75400;SDS011;63974;47.538;18.972;2023-03-09T18:53:31;19.58;;;10.73;;
75400;SDS011;63974;47.538;18.972;2023-03-09T18:56:35;17.92;;;11.25;;
75400;SDS011;63974;47.538;18.972;2023-03-09T18:59:38;19.13;;;12.20;;